Time;durP1;ratioP1;P1;durP2;ratioP2;P2;SDS_P1;SDS_P2;PMS_P1;PMS_P2;Temp;Humidity;BMP_temperature;BMP_pressure;BME280_temperature;BME280_humidity;BME280_pressure;Samples;Min_cycle;Max_cycle;Signal;HPM_P1;HPM_P2
2024/03/05 00:02:29;;;;;;;4.70;3.25;;;;;;;7.33;100.00;96917.50;1225015;75;2923307;-66
2024/03/05 00:05:03;;;;;;;4.20;2.75;;;;;;;7.35;100.00;96925.97;1195633;75;5027708;-65
2024/03/05 00:07:36;;;;;;;4.00;2.60;;;;;;;7.13;100.00;96931.06;1223849;75;2931443;-64
2024/03/05 00:10:31;;;;;;;5.95;2.70;;;;;;;7.08;100.00;96926.28;1225993;75;2919906;-66
2024/03/05 00:13:07;;;;;;;3.45;2.40;;;;;;;7.13;100.00;96931.06;1224953;75;2917181;-67
2024/03/05 00:15:40;;;;;;;2.95;2.35;;;;;;;7.10;100.00;96930.03;1225760;75;2891102;-65
2024/03/05 00:18:13;;;;;;;4.00;2.20;;;;;;;7.01;100.00;96927.41;1224634;75;2918384;-65
2024/03/05 00:20:46;;;;;;;3.30;1.90;;;;;;;6.98;100.00;96931.06;1224471;75;2921877;-64
2024/03/05 00:23:19;;;;;;;2.30;1.50;;;;;;;6.96;100.00;96936.22;1223783;75;2923248;-64
2024/03/05 00:25:51;;;;;;;2.90;1.80;;;;;;;6.88;100.00;96932.34;1226114;75;2916104;-64
2024/03/05 00:28:27;;;;;;;2.25;1.60;;;;;;;6.76;100.00;96934.91;1225910;75;2916847;-65
2024/03/05 00:31:00;;;;;;;3.95;1.80;;;;;;;6.72;100.00;96930.88;1225530;75;2909335;-64
2024/03/05 00:33:33;;;;;;;3.20;1.90;;;;;;;6.51;100.00;96935.41;1225090;75;2921238;-64
2024/03/05 00:36:06;;;;;;;2.75;1.65;;;;;;;6.53;100.00;96931.00;1224572;75;2922778;-63
2024/03/05 00:38:39;;;;;;;2.50;1.60;;;;;;;6.48;100.00;96937.09;1224848;75;2922180;-64
2024/03/05 00:41:12;;;;;;;3.35;2.30;;;;;;;6.35;100.00;96939.31;1225298;75;2940531;-63
2024/03/05 00:43:48;;;;;;;3.30;2.05;;;;;;;6.25;100.00;96938.63;1225451;75;2914556;-65
2024/03/05 00:46:21;;;;;;;3.60;1.70;;;;;;;6.29;100.00;96944.63;1225619;75;2911943;-66
2024/03/05 00:48:54;;;;;;;4.00;1.90;;;;;;;6.23;100.00;96938.34;1225452;75;2925081;-64
2024/03/05 00:51:26;;;;;;;5.15;2.40;;;;;;;6.13;100.00;96936.88;1224416;75;2915713;-65
2024/03/05 00:53:59;;;;;;;3.85;1.95;;;;;;;6.15;100.00;96937.94;1224600;75;2932706;-64
2024/03/05 00:56:32;;;;;;;3.55;2.20;;;;;;;5.94;100.00;96936.25;1225754;75;2914718;-67
2024/03/05 00:59:08;;;;;;;2.10;1.65;;;;;;;5.96;100.00;96939.25;1224324;75;2918805;-65
2024/03/05 01:01:41;;;;;;;3.95;2.45;;;;;;;5.85;100.00;96941.72;1224208;75;2920523;-65
2024/03/05 01:04:14;;;;;;;4.60;2.35;;;;;;;5.90;100.00;96935.66;1224868;75;2918426;-64
2024/03/05 01:06:47;;;;;;;4.25;2.55;;;;;;;5.79;100.00;96933.44;1223604;75;3026720;-65
2024/03/05 01:09:24;;;;;;;3.80;2.00;;;;;;;5.73;100.00;96940.72;1225466;75;2916070;-65
2024/03/05 01:11:57;;;;;;;3.35;2.00;;;;;;;5.69;100.00;96938.16;1224973;75;2925737;-65
2024/03/05 01:14:33;;;;;;;3.85;2.40;;;;;;;5.53;100.00;96942.03;1224960;75;2918711;-63
2024/03/05 01:17:08;;;;;;;3.70;2.55;;;;;;;5.64;100.00;96949.66;1225019;75;2925263;-64
2024/03/05 01:19:41;;;;;;;3.55;2.45;;;;;;;5.61;100.00;96952.56;1224806;75;2918779;-65
2024/03/05 01:22:14;;;;;;;2.90;1.90;;;;;;;5.44;100.00;96947.50;1224139;75;2915965;-64
2024/03/05 01:24:47;;;;;;;3.15;2.00;;;;;;;5.57;100.00;96949.25;1225103;75;2909741;-65
2024/03/05 01:27:21;;;;;;;3.40;2.05;;;;;;;5.39;100.00;96947.34;1224465;75;2921507;-64
2024/03/05 01:29:59;;;;;;;2.85;1.60;;;;;;;5.40;100.00;96951.56;1225911;75;2907225;-66
2024/03/05 01:32:34;;;;;;;3.50;1.90;;;;;;;5.31;100.00;96952.34;1224725;75;2924014;-64
2024/03/05 01:35:10;;;;;;;3.20;1.70;;;;;;;5.27;100.00;96954.50;1224662;75;2928839;-66
2024/03/05 01:37:43;;;;;;;3.05;1.90;;;;;;;5.21;100.00;96954.34;1225094;75;2916026;-64
2024/03/05 01:40:16;;;;;;;3.40;1.95;;;;;;;5.25;100.00;96951.47;1225121;75;2932424;-64
2024/03/05 01:42:49;;;;;;;2.05;1.70;;;;;;;5.19;100.00;96950.59;1224767;75;2919781;-65
2024/03/05 01:45:24;;;;;;;2.00;1.40;;;;;;;5.13;100.00;96953.91;1225256;75;2920769;-65
2024/03/05 01:48:00;;;;;;;2.60;1.60;;;;;;;4.92;100.00;96952.16;1225127;75;2922403;-63
2024/03/05 01:50:35;;;;;;;1.75;1.35;;;;;;;4.98;100.00;96952.28;1224460;75;2933263;-65
2024/03/05 01:53:10;;;;;;;3.50;1.90;;;;;;;4.72;100.00;96952.63;1224657;75;2925841;-64
2024/03/05 01:55:44;;;;;;;4.15;2.10;;;;;;;4.63;100.00;96956.09;1224927;75;2920368;-65
2024/03/05 01:58:19;;;;;;;5.40;2.25;;;;;;;4.58;100.00;96956.69;1224294;75;2929622;-64
2024/03/05 02:00:57;;;;;;;3.95;2.10;;;;;;;4.53;100.00;96961.97;1224963;75;2917307;-64
2024/03/05 02:03:32;;;;;;;4.20;2.50;;;;;;;4.42;100.00;96951.56;1223991;75;2925818;-64
2024/03/05 02:06:06;;;;;;;4.70;2.60;;;;;;;4.47;100.00;96954.44;1225341;75;2918819;-66
2024/03/05 02:08:39;;;;;;;7.55;3.00;;;;;;;4.34;100.00;96951.13;1224227;75;2917682;-66
2024/03/05 02:11:12;;;;;;;5.40;2.65;;;;;;;4.44;100.00;96952.63;1225336;75;2916281;-66
2024/03/05 02:13:47;;;;;;;5.70;2.60;;;;;;;4.58;100.00;96958.66;1224123;75;2923560;-65
2024/03/05 02:16:22;;;;;;;3.20;2.20;;;;;;;4.44;100.00;96962.72;1223281;75;2916579;-67
2024/03/05 02:18:55;;;;;;;3.20;2.20;;;;;;;4.34;100.00;96967.38;1223845;75;2923152;-65
2024/03/05 02:21:31;;;;;;;3.90;1.80;;;;;;;4.22;100.00;96969.03;1223967;75;2923512;-64
2024/03/05 02:24:04;;;;;;;5.05;2.55;;;;;;;4.10;100.00;96977.28;1224355;75;2922277;-66
2024/03/05 02:26:37;;;;;;;4.70;3.05;;;;;;;4.21;100.00;96970.22;1225309;75;2923475;-67
2024/03/05 02:29:11;;;;;;;3.50;2.65;;;;;;;4.24;100.00;96971.28;1225218;75;2939984;-67
2024/03/05 02:31:44;;;;;;;3.10;2.15;;;;;;;4.19;100.00;96978.06;1224155;75;2922706;-63
2024/03/05 02:34:17;;;;;;;4.70;2.40;;;;;;;4.08;100.00;96974.28;1224758;75;2929116;-64
2024/03/05 02:36:52;;;;;;;4.55;2.95;;;;;;;4.00;100.00;96981.94;1225045;75;2920662;-66
2024/03/05 02:39:27;;;;;;;5.85;3.40;;;;;;;4.00;100.00;96973.81;1224874;75;2924230;-64
2024/03/05 02:42:00;;;;;;;4.45;2.85;;;;;;;3.96;100.00;96979.34;1223095;75;2917748;-65
2024/03/05 02:44:33;;;;;;;5.70;3.85;;;;;;;3.79;100.00;96988.94;1225136;75;2916350;-63
2024/03/05 02:47:07;;;;;;;7.05;3.95;;;;;;;3.87;100.00;96984.00;1224862;75;2927998;-66
2024/03/05 02:49:40;;;;;;;7.35;4.20;;;;;;;3.83;100.00;96984.88;1224565;75;2919108;-64
2024/03/05 02:52:18;;;;;;;5.95;3.80;;;;;;;3.61;100.00;96989.63;1224009;75;2916341;-65
2024/03/05 02:54:51;;;;;;;5.60;3.60;;;;;;;3.81;100.00;96987.28;1225150;75;2920467;-67
2024/03/05 02:57:24;;;;;;;5.15;3.65;;;;;;;3.69;100.00;96998.97;1224598;75;2919438;-64
2024/03/05 02:59:57;;;;;;;8.15;4.85;;;;;;;3.62;100.00;96996.53;1224600;75;2923852;-64
2024/03/05 03:02:30;;;;;;;5.40;3.85;;;;;;;3.82;100.00;96996.16;1223609;75;2922513;-64
2024/03/05 03:05:02;;;;;;;6.10;3.65;;;;;;;3.77;100.00;97000.19;1224125;75;2949124;-63
2024/03/05 03:07:39;;;;;;;4.75;3.50;;;;;;;3.77;100.00;96994.78;1224148;75;2922344;-65
2024/03/05 03:10:12;;;;;;;4.70;3.25;;;;;;;3.73;100.00;97004.25;1225347;75;2922637;-65
2024/03/05 03:12:49;;;;;;;4.15;3.05;;;;;;;3.71;100.00;97006.66;1222609;75;2926366;-64
2024/03/05 03:15:23;;;;;;;3.80;2.90;;;;;;;3.61;100.00;97005.88;1223405;75;2919923;-64
2024/03/05 03:17:57;;;;;;;3.90;2.40;;;;;;;3.57;100.00;97010.66;1224005;75;2908629;-64
2024/03/05 03:20:32;;;;;;;3.35;2.15;;;;;;;3.60;100.00;96998.94;1224303;75;2915035;-66
2024/03/05 03:23:08;;;;;;;2.75;2.15;;;;;;;3.56;100.00;97012.63;1223418;75;2917906;-66
2024/03/05 03:25:41;;;;;;;3.05;1.80;;;;;;;3.54;100.00;97009.59;1224356;75;2924227;-64
2024/03/05 03:28:14;;;;;;;2.10;1.80;;;;;;;3.47;100.00;97014.53;1222286;75;2998626;-66
2024/03/05 03:30:46;;;;;;;1.90;1.45;;;;;;;3.46;100.00;97018.41;1223783;75;2923981;-64
2024/03/05 03:33:20;;;;;;;3.60;1.95;;;;;;;3.44;100.00;97018.88;1222532;75;2939336;-66
2024/03/05 03:35:55;;;;;;;1.50;1.40;;;;;;;3.45;100.00;97020.38;1223665;75;2924431;-64
2024/03/05 03:38:30;;;;;;;2.50;1.65;;;;;;;3.40;100.00;97013.56;1224719;75;2919763;-66
2024/03/05 03:41:03;;;;;;;2.40;1.40;;;;;;;3.41;100.00;97025.16;1223967;75;2921331;-65
2024/03/05 03:43:36;;;;;;;2.05;1.20;;;;;;;3.39;100.00;97025.59;1223772;75;2927392;-64
2024/03/05 03:46:10;;;;;;;1.30;1.10;;;;;;;3.30;100.00;97022.84;1222161;75;2935206;-64
2024/03/05 03:48:42;;;;;;;1.45;1.20;;;;;;;3.31;100.00;97024.34;1220822;75;2923782;-63
2024/03/05 03:51:17;;;;;;;1.75;1.20;;;;;;;3.29;100.00;97026.72;1223764;75;2919605;-63
2024/03/05 03:53:52;;;;;;;2.05;1.15;;;;;;;3.22;100.00;97024.28;1223774;75;2922710;-65
2024/03/05 03:56:25;;;;;;;2.30;1.30;;;;;;;3.18;100.00;97026.38;1223131;75;2933810;-63
2024/03/05 03:58:58;;;;;;;2.35;1.70;;;;;;;3.18;100.00;97021.72;1223752;75;2933048;-64
2024/03/05 04:01:31;;;;;;;3.70;1.70;;;;;;;3.20;100.00;97030.16;1223168;75;2932415;-65
2024/03/05 04:04:04;;;;;;;3.15;2.40;;;;;;;3.13;100.00;97035.81;1224136;75;2921068;-62
2024/03/05 04:06:38;;;;;;;4.70;3.70;;;;;;;3.16;100.00;97032.22;1221801;75;2955234;-62
2024/03/05 04:09:13;;;;;;;5.50;4.35;;;;;;;3.13;100.00;97040.47;1223605;75;2921324;-66
2024/03/05 04:11:46;;;;;;;6.45;4.35;;;;;;;3.07;100.00;97028.72;1223373;75;2921380;-64
2024/03/05 04:14:19;;;;;;;5.35;3.40;;;;;;;3.19;100.00;97036.75;1222834;75;2919261;-67
2024/03/05 04:16:52;;;;;;;3.30;2.90;;;;;;;3.18;100.00;97045.31;1223571;75;2916944;-65
2024/03/05 04:19:25;;;;;;;4.25;3.00;;;;;;;3.26;100.00;97043.09;1223230;75;2946182;-63
2024/03/05 04:21:58;;;;;;;3.40;2.50;;;;;;;3.20;100.00;97042.94;1222645;75;2935210;-64
2024/03/05 04:24:35;;;;;;;2.40;2.15;;;;;;;3.13;100.00;97041.22;1223676;75;2920794;-64
2024/03/05 04:27:11;;;;;;;2.40;1.90;;;;;;;3.10;100.00;97054.84;1222750;75;2932458;-62
2024/03/05 04:29:47;;;;;;;3.30;2.30;;;;;;;2.95;100.00;97049.19;1223855;75;2923441;-65
2024/03/05 04:32:23;;;;;;;5.95;2.60;;;;;;;3.07;100.00;97056.50;1223503;75;2919535;-63
2024/03/05 04:35:02;;;;;;;2.75;2.10;;;;;;;3.09;100.00;97058.78;1223692;75;2937171;-62
2024/03/05 04:37:35;;;;;;;2.45;1.90;;;;;;;2.74;100.00;97064.19;1222854;75;2942376;-62
2024/03/05 04:40:13;;;;;;;2.85;2.00;;;;;;;2.90;100.00;97061.31;1224095;75;2934940;-64
2024/03/05 04:42:49;;;;;;;2.40;1.70;;;;;;;2.84;100.00;97067.72;1223817;75;2929943;-65
2024/03/05 04:45:21;;;;;;;3.35;1.80;;;;;;;2.85;100.00;97063.84;1223897;75;2918930;-66
2024/03/05 04:47:54;;;;;;;2.15;1.65;;;;;;;2.87;100.00;97064.16;1224480;75;2923993;-63
2024/03/05 04:50:27;;;;;;;2.30;1.65;;;;;;;2.88;100.00;97071.06;1223635;75;2951082;-61
2024/03/05 04:53:00;;;;;;;2.40;1.50;;;;;;;2.78;100.00;97064.84;1223675;75;2950362;-64
2024/03/05 04:55:36;;;;;;;1.75;1.20;;;;;;;2.72;100.00;97072.75;1223827;75;2916296;-65
2024/03/05 04:58:09;;;;;;;2.10;1.30;;;;;;;2.71;100.00;97076.63;1224257;75;2931130;-64
2024/03/05 05:00:41;;;;;;;1.65;1.20;;;;;;;2.70;100.00;97071.69;1224243;75;2920929;-62
2024/03/05 05:03:14;;;;;;;3.00;1.25;;;;;;;2.70;100.00;97074.38;1223753;75;2929779;-64
2024/03/05 05:05:47;;;;;;;1.70;1.20;;;;;;;2.58;100.00;97084.03;1224856;75;2923552;-65
2024/03/05 05:08:20;;;;;;;2.30;1.30;;;;;;;2.60;100.00;97083.56;1191167;83;5609896;-65
2024/03/05 05:10:56;;;;;;;2.15;1.55;;;;;;;2.54;100.00;97086.09;1223483;75;2913320;-65
2024/03/05 05:13:29;;;;;;;1.50;1.30;;;;;;;2.52;100.00;97078.41;1223996;75;2928220;-64
2024/03/05 05:16:01;;;;;;;2.40;1.40;;;;;;;2.44;100.00;97081.78;1221679;75;2938247;-64
2024/03/05 05:18:35;;;;;;;3.60;1.60;;;;;;;2.43;100.00;97093.75;1223114;75;2929385;-63
2024/03/05 05:21:09;;;;;;;12.90;8.60;;;;;;;2.26;100.00;97077.72;1190723;75;5187078;-65
2024/03/05 05:23:42;;;;;;;9.30;7.50;;;;;;;2.30;100.00;97089.13;1220879;75;2935595;-64
2024/03/05 05:26:17;;;;;;;10.30;7.55;;;;;;;2.19;100.00;97088.72;1223233;75;2928245;-64
2024/03/05 05:28:50;;;;;;;4.85;4.20;;;;;;;2.12;100.00;97084.31;1222892;75;2931298;-65
2024/03/05 05:31:28;;;;;;;5.45;4.60;;;;;;;2.26;100.00;97090.44;1222465;75;2935001;-65
2024/03/05 05:34:01;;;;;;;8.10;5.30;;;;;;;2.18;100.00;97086.47;1224554;75;2916286;-64
2024/03/05 05:36:34;;;;;;;6.75;5.15;;;;;;;2.26;100.00;97090.44;1223953;75;2918534;-64
2024/03/05 05:39:07;;;;;;;5.95;4.50;;;;;;;2.26;100.00;97093.13;1223826;75;2925374;-65
2024/03/05 05:41:43;;;;;;;4.00;3.10;;;;;;;2.31;100.00;97101.47;1223422;75;2944464;-65
2024/03/05 05:44:16;;;;;;;6.15;3.10;;;;;;;2.32;100.00;97102.97;1224152;75;2922909;-65
2024/03/05 05:46:49;;;;;;;4.85;2.90;;;;;;;2.35;100.00;97098.66;1223730;75;2903407;-65
2024/03/05 05:49:23;;;;;;;3.25;2.35;;;;;;;2.35;100.00;97106.75;1224023;75;2926071;-64
2024/03/05 05:51:55;;;;;;;2.95;2.15;;;;;;;2.33;100.00;97101.00;1222251;75;2926937;-65
2024/03/05 05:54:29;;;;;;;3.45;2.55;;;;;;;2.40;100.00;97103.50;1223109;75;2924427;-66
2024/03/05 05:57:04;;;;;;;4.40;2.70;;;;;;;2.41;100.00;97113.13;1223424;75;2923180;-64
2024/03/05 05:59:37;;;;;;;5.70;3.25;;;;;;;2.42;100.00;97121.97;1223872;75;2932395;-65
2024/03/05 06:02:11;;;;;;;5.20;3.25;;;;;;;2.38;100.00;97126.72;1223563;75;2921043;-66
2024/03/05 06:04:46;;;;;;;5.20;3.15;;;;;;;2.47;100.00;97130.28;1223241;75;2918545;-65
2024/03/05 06:07:19;;;;;;;5.80;3.35;;;;;;;2.52;100.00;97128.97;1223743;75;2929097;-65
2024/03/05 06:09:52;;;;;;;5.90;3.30;;;;;;;2.51;100.00;97128.22;1224112;75;2918220;-63
2024/03/05 06:12:27;;;;;;;5.20;2.85;;;;;;;2.56;100.00;97133.09;1223375;75;2920621;-63
2024/03/05 06:15:00;;;;;;;4.75;3.10;;;;;;;2.62;100.00;97130.63;1224624;75;2928059;-63
2024/03/05 06:17:33;;;;;;;4.00;2.45;;;;;;;2.70;100.00;97134.59;1223680;75;2921420;-66
2024/03/05 06:20:07;;;;;;;3.50;2.40;;;;;;;2.71;100.00;97138.03;1223190;75;2922687;-65
2024/03/05 06:22:41;;;;;;;4.10;2.35;;;;;;;2.83;100.00;97145.38;1223884;75;2930415;-63
2024/03/05 06:25:16;;;;;;;3.25;2.10;;;;;;;2.86;100.00;97141.81;1224415;75;2920297;-64
2024/03/05 06:27:52;;;;;;;2.75;1.80;;;;;;;2.94;100.00;97153.88;1222310;75;2936387;-62
2024/03/05 06:30:25;;;;;;;3.75;1.90;;;;;;;3.03;100.00;97153.22;1223736;75;2917235;-63
2024/03/05 06:32:58;;;;;;;2.85;1.70;;;;;;;3.19;100.00;97147.63;1224143;75;2925518;-64
2024/03/05 06:35:31;;;;;;;3.60;1.80;;;;;;;3.25;100.00;97152.47;1222919;75;2918299;-65
2024/03/05 06:38:06;;;;;;;3.80;2.35;;;;;;;3.37;100.00;97152.44;1224277;75;2922613;-64
2024/03/05 06:40:39;;;;;;;3.85;2.30;;;;;;;3.58;100.00;97148.25;1224625;75;2922874;-63
2024/03/05 06:43:20;;;;;;;3.65;2.40;;;;;;;3.81;100.00;97157.84;1223510;75;2922193;-64
2024/03/05 06:45:54;;;;;;;2.35;1.70;;;;;;;4.00;100.00;97152.53;1223869;75;2918803;-63
2024/03/05 06:48:27;;;;;;;2.45;1.85;;;;;;;4.17;100.00;97153.81;1223190;75;2925893;-63
2024/03/05 06:51:01;;;;;;;2.70;1.85;;;;;;;4.40;100.00;97163.41;1221485;75;2967424;-66
2024/03/05 06:59:08;;;;;;;4.05;2.85;;;;;;;5.20;100.00;97155.59;1213301;75;3261523;-65
2024/03/05 07:01:41;;;;;;;2.95;2.20;;;;;;;5.49;100.00;97155.16;1175797;75;5784550;-64
2024/03/05 07:04:14;;;;;;;3.55;2.20;;;;;;;5.78;100.00;97151.19;1223344;75;2925312;-64
2024/03/05 07:06:48;;;;;;;4.90;2.80;;;;;;;5.96;100.00;97162.03;1223561;75;2932901;-64
2024/03/05 07:09:27;;;;;;;4.10;2.45;;;;;;;6.35;100.00;97162.22;1224173;75;2926970;-64
2024/03/05 07:12:00;;;;;;;4.50;2.60;;;;;;;6.70;100.00;97169.94;1223341;75;2928562;-66
2024/03/05 07:14:35;;;;;;;3.35;2.60;;;;;;;6.97;100.00;97177.19;1224457;75;2927471;-65
2024/03/05 07:17:09;;;;;;;4.00;2.90;;;;;;;7.32;100.00;97163.78;1224026;75;2933330;-65
2024/03/05 07:19:42;;;;;;;4.30;3.25;;;;;;;7.63;100.00;97171.56;1224254;75;2945123;-64
2024/03/05 07:22:14;;;;;;;9.90;3.20;;;;;;;7.87;100.00;97176.19;1222987;75;2929513;-65
2024/03/05 07:24:47;;;;;;;6.75;3.10;;;;;;;7.96;100.00;97180.78;1223634;75;2924656;-66
2024/03/05 07:27:20;;;;;;;5.05;3.50;;;;;;;8.05;100.00;97184.16;1224227;75;2922545;-65
2024/03/05 07:30:10;;;;;;;5.25;2.88;;;;;;;8.59;96.83;97188.78;1115456;75;12070938;-63
2024/03/05 07:32:42;;;;;;;5.60;3.85;;;;;;;8.35;98.88;97184.19;1223830;75;2928261;-64
2024/03/05 07:35:16;;;;;;;4.25;3.00;;;;;;;8.80;95.99;97190.31;1223068;75;2926063;-66
2024/03/05 07:37:49;;;;;;;8.35;3.65;;;;;;;8.28;98.27;97181.81;1223515;75;2931322;-65
2024/03/05 07:40:23;;;;;;;5.90;3.65;;;;;;;9.06;96.21;97181.47;1224749;75;2924376;-67
2024/03/05 07:42:56;;;;;;;6.00;3.25;;;;;;;9.21;95.97;97186.88;1223086;75;2919811;-65
2024/03/05 07:45:33;;;;;;;6.65;2.80;;;;;;;9.42;90.57;97191.09;1221569;75;2924126;-65
2024/03/05 07:48:06;;;;;;;4.50;2.50;;;;;;;9.74;87.13;97183.78;1222667;75;2924382;-66
2024/03/05 07:50:40;;;;;;;6.50;2.30;;;;;;;10.03;82.43;97191.00;1221647;75;2935468;-67
2024/03/05 07:53:13;;;;;;;5.75;3.05;;;;;;;9.98;86.31;97191.72;1223049;75;2925852;-65
2024/03/05 07:55:46;;;;;;;8.65;4.05;;;;;;;9.94;83.46;97193.16;1223481;75;2926959;-66
2024/03/05 07:58:19;;;;;;;7.75;4.40;;;;;;;10.17;81.66;97191.38;1222602;75;2935699;-67
2024/03/05 08:00:55;;;;;;;7.20;3.50;;;;;;;10.24;81.08;97199.88;1223683;75;2921028;-67
2024/03/05 08:03:27;;;;;;;5.30;3.80;;;;;;;10.15;81.78;97199.28;1222584;75;2926850;-66
2024/03/05 08:06:00;;;;;;;6.75;3.40;;;;;;;10.16;83.27;97198.06;1223369;75;2922679;-66
2024/03/05 08:08:33;;;;;;;6.40;3.90;;;;;;;9.91;82.68;97194.88;1223582;75;2922440;-64
2024/03/05 08:11:06;;;;;;;6.25;3.60;;;;;;;10.02;82.18;97196.94;1223391;75;2927177;-64
2024/03/05 08:13:41;;;;;;;10.50;4.10;;;;;;;10.00;84.36;97202.16;1223455;75;2918604;-65
2024/03/05 08:16:17;;;;;;;9.05;4.10;;;;;;;9.62;84.86;97203.25;1222767;75;2926138;-65
2024/03/05 08:18:50;;;;;;;11.70;6.00;;;;;;;9.74;84.92;97205.63;1222530;75;2927389;-65
2024/03/05 08:21:22;;;;;;;10.50;4.60;;;;;;;9.83;84.12;97193.78;1222926;75;2922332;-65
2024/03/05 08:23:55;;;;;;;8.80;4.55;;;;;;;10.09;89.85;97206.72;1222217;75;2927175;-66
2024/03/05 08:26:30;;;;;;;9.95;5.45;;;;;;;9.56;100.00;97211.38;1223165;75;2939570;-65
2024/03/05 08:29:03;;;;;;;12.30;6.30;;;;;;;9.64;100.00;97217.94;1223826;75;2925885;-65
2024/03/05 08:31:38;;;;;;;10.80;5.25;;;;;;;9.87;97.32;97213.47;1221282;75;2948954;-66
2024/03/05 08:34:11;;;;;;;9.10;4.85;;;;;;;9.43;100.00;97217.22;1222850;75;2929317;-64
2024/03/05 08:36:45;;;;;;;11.00;5.10;;;;;;;9.52;100.00;97216.31;1222747;75;2922712;-65
2024/03/05 08:39:20;;;;;;;14.05;5.20;;;;;;;9.19;100.00;97225.59;1222676;75;2939970;-66
2024/03/05 08:41:53;;;;;;;11.15;5.75;;;;;;;9.52;100.00;97219.78;1222700;75;2927053;-66
2024/03/05 08:44:26;;;;;;;8.85;5.00;;;;;;;9.73;97.63;97225.25;1222265;75;2933595;-65
2024/03/05 08:47:01;;;;;;;9.40;5.10;;;;;;;9.46;100.00;97232.63;1208159;75;4101133;-68
2024/03/05 08:49:34;;;;;;;10.30;6.05;;;;;;;9.90;100.00;97225.41;1223189;75;2921172;-65
2024/03/05 08:52:08;;;;;;;9.30;5.10;;;;;;;9.62;100.00;97231.34;1221263;75;2932793;-66
2024/03/05 08:54:42;;;;;;;11.10;5.95;;;;;;;9.42;100.00;97236.81;1223484;75;2922209;-66
2024/03/05 08:57:14;;;;;;;12.40;7.20;;;;;;;9.44;100.00;97232.34;1222721;75;2924915;-64
2024/03/05 08:59:48;;;;;;;11.35;6.75;;;;;;;9.37;100.00;97235.50;1222212;75;2935984;-66
2024/03/05 09:02:24;;;;;;;10.60;6.10;;;;;;;9.53;100.00;97237.69;1222441;75;2920967;-65
2024/03/05 09:04:58;;;;;;;9.60;6.00;;;;;;;9.59;100.00;97243.22;1221993;75;2965535;-65
2024/03/05 09:07:31;;;;;;;9.80;6.25;;;;;;;9.39;100.00;97239.25;1222791;75;2960964;-65
2024/03/05 09:10:04;;;;;;;10.55;6.15;;;;;;;9.62;98.51;97236.03;1222521;75;2927420;-65
2024/03/05 09:12:37;;;;;;;13.10;6.10;;;;;;;9.46;94.24;97243.56;1221914;75;2924503;-65
2024/03/05 09:15:12;;;;;;;9.95;5.65;;;;;;;9.38;92.40;97240.50;1222466;75;2925894;-66
2024/03/05 09:17:47;;;;;;;11.30;5.75;;;;;;;9.46;94.62;97242.81;1221538;75;2944408;-65
2024/03/05 09:20:20;;;;;;;11.90;6.65;;;;;;;9.55;94.63;97237.22;1222619;75;2930407;-68
2024/03/05 09:22:53;;;;;;;8.95;5.90;;;;;;;9.69;94.59;97250.06;1221808;75;2937862;-66
2024/03/05 09:25:28;;;;;;;9.00;5.85;;;;;;;9.41;94.13;97243.50;1223162;75;2927113;-67
2024/03/05 09:28:01;;;;;;;12.25;6.80;;;;;;;9.31;98.20;97242.88;1222989;75;2921576;-66
2024/03/05 09:30:34;;;;;;;8.05;5.25;;;;;;;9.70;97.44;97251.56;1222428;75;2930471;-64
2024/03/05 09:33:10;;;;;;;11.90;5.95;;;;;;;9.49;95.86;97253.53;1222740;75;2931345;-66
2024/03/05 09:35:43;;;;;;;9.80;5.80;;;;;;;9.78;96.40;97260.84;1223596;75;2940127;-66
2024/03/05 09:38:16;;;;;;;8.40;4.80;;;;;;;9.77;98.56;97259.34;1222559;75;2920142;-65
2024/03/05 09:40:49;;;;;;;9.30;5.20;;;;;;;9.87;96.40;97261.94;1222635;75;2921518;-64
2024/03/05 09:43:25;;;;;;;8.40;4.90;;;;;;;10.07;96.67;97258.41;1221316;75;2930446;-65
2024/03/05 09:46:06;;;;;;;11.65;6.20;;;;;;;9.82;98.13;97264.13;1223333;75;2924298;-65
2024/03/05 09:48:42;;;;;;;9.50;5.35;;;;;;;10.06;99.18;97267.84;1222077;75;2937435;-65
2024/03/05 09:51:15;;;;;;;8.55;5.30;;;;;;;10.17;100.00;97260.50;1221783;75;2960475;-68
2024/03/05 09:53:49;;;;;;;9.50;4.45;;;;;;;10.53;96.40;97263.84;1221954;75;2929297;-65
2024/03/05 09:56:22;;;;;;;9.30;5.40;;;;;;;10.26;98.41;97261.59;1223161;75;2923280;-65
2024/03/05 09:58:55;;;;;;;13.10;6.15;;;;;;;10.22;98.04;97268.03;1221750;75;2924020;-66
2024/03/05 10:01:28;;;;;;;11.50;6.50;;;;;;;10.36;98.08;97268.41;1222311;75;2928589;-65
2024/03/05 10:04:07;;;;;;;14.55;7.40;;;;;;;10.35;96.84;97266.91;1220753;75;2923607;-69
2024/03/05 10:06:40;;;;;;;13.15;6.75;;;;;;;10.38;95.17;97260.47;1222500;75;2918024;-65
2024/03/05 10:09:13;;;;;;;13.10;6.35;;;;;;;10.59;94.71;97261.16;1223154;75;2938605;-65
2024/03/05 10:11:46;;;;;;;12.70;6.95;;;;;;;10.68;94.80;97269.19;1220849;75;2933042;-66
2024/03/05 10:14:19;;;;;;;17.00;10.70;;;;;;;10.62;95.02;97265.66;1222119;75;2929513;-67
2024/03/05 10:17:03;;;;;;;11.75;7.25;;;;;;;10.82;94.00;97264.81;1222804;75;2940239;-68
2024/03/05 10:19:48;;;;;;;13.40;6.10;;;;;;;10.61;94.36;97267.66;1221629;75;2927573;-66
2024/03/05 10:22:21;;;;;;;9.60;4.90;;;;;;;10.95;90.27;97269.91;1221310;75;2925040;-68
2024/03/05 10:24:54;;;;;;;7.70;5.25;;;;;;;11.11;88.53;97265.75;1223994;75;2922669;-63
2024/03/05 10:27:33;;;;;;;5.70;3.80;;;;;;;11.37;87.24;97266.41;1222977;75;2933045;-65
2024/03/05 10:30:20;;;;;;;6.05;3.85;;;;;;;11.54;84.73;97269.22;1224266;75;2924938;-65
2024/03/05 10:33:01;;;;;;;5.45;3.65;;;;;;;11.70;84.58;97267.81;1222264;75;2925809;-69
2024/03/05 10:35:37;;;;;;;9.25;3.85;;;;;;;11.68;84.52;97268.28;1136108;75;8766020;-67
2024/03/05 10:38:14;;;;;;;6.50;4.40;;;;;;;11.50;84.04;97264.00;1217709;75;2964358;-65
2024/03/05 10:40:48;;;;;;;7.00;3.95;;;;;;;11.86;82.11;97261.63;1223784;75;2928487;-64
2024/03/05 10:43:22;;;;;;;8.35;4.40;;;;;;;11.70;82.41;97267.81;1223336;75;2921151;-66
2024/03/05 10:45:55;;;;;;;8.20;4.30;;;;;;;11.69;81.22;97266.31;1220380;75;3003740;-65
2024/03/05 10:48:29;;;;;;;7.40;4.15;;;;;;;11.88;79.75;97267.41;1192355;75;5354513;-64
2024/03/05 10:51:07;;;;;;;9.70;5.00;;;;;;;11.77;81.57;97266.59;1223570;75;2927533;-67
2024/03/05 10:53:40;;;;;;;9.00;5.00;;;;;;;11.96;79.79;97262.19;1185539;75;5939476;-62
2024/03/05 10:56:14;;;;;;;5.85;4.10;;;;;;;12.05;79.53;97266.69;1222993;75;2924003;-66
2024/03/05 11:01:42;;;;;;;7.10;4.15;;;;;;;12.38;77.64;97268.75;1222455;75;2927475;-66
2024/03/05 11:04:19;;;;;;;8.30;4.60;;;;;;;12.08;76.74;97262.97;1221609;75;2920302;-67
2024/03/05 11:06:57;;;;;;;6.50;4.15;;;;;;;12.32;76.67;97266.00;1223490;75;2925121;-64
2024/03/05 11:09:31;;;;;;;6.35;4.15;;;;;;;12.38;74.73;97277.00;1222874;75;2920504;-66
2024/03/05 11:12:09;;;;;;;6.35;4.00;;;;;;;12.53;75.11;97263.03;1222210;75;2918861;-65
2024/03/05 11:14:42;;;;;;;7.80;3.90;;;;;;;12.42;74.35;97263.78;1208273;75;4069269;-66
2024/03/05 11:17:15;;;;;;;11.05;3.55;;;;;;;12.92;73.96;97265.78;1224113;75;2945301;-65
2024/03/05 11:19:51;;;;;;;5.10;3.65;;;;;;;12.90;73.74;97268.28;1223252;83;2971808;-68
2024/03/05 11:22:29;;;;;;;5.95;3.45;;;;;;;13.15;70.71;97269.22;1223058;75;2923792;-64
2024/03/05 11:25:05;;;;;;;8.50;3.70;;;;;;;12.92;72.04;97259.53;1224572;75;2917703;-67
2024/03/05 11:27:38;;;;;;;8.35;3.90;;;;;;;12.88;70.52;97261.78;1223824;75;2925457;-65
2024/03/05 11:30:15;;;;;;;7.70;3.80;;;;;;;13.00;70.13;97264.00;1224142;75;2932963;-68
2024/03/05 11:32:52;;;;;;;6.40;3.70;;;;;;;13.10;70.41;97264.50;1207485;75;4093558;-65
2024/03/05 11:35:24;;;;;;;6.35;3.60;;;;;;;13.15;71.48;97263.00;1224390;75;2917074;-65
2024/03/05 11:38:01;;;;;;;10.75;5.75;;;;;;;12.81;71.51;97260.28;1222045;75;2924058;-65
2024/03/05 11:40:36;;;;;;;9.15;5.95;;;;;;;13.09;73.73;97259.53;1222459;75;2923366;-64
2024/03/05 11:43:08;;;;;;;7.40;4.60;;;;;;;12.96;71.15;97260.00;1224614;75;2922634;-66
2024/03/05 11:45:55;;;;;;;8.60;4.15;;;;;;;13.01;71.02;97256.50;1224413;75;2927839;-65
2024/03/05 11:48:29;;;;;;;8.35;5.50;;;;;;;13.06;70.77;97258.53;1223955;75;2922792;-64
2024/03/05 11:51:02;;;;;;;11.05;7.50;;;;;;;13.15;69.80;97260.25;1224427;75;2911156;-67
2024/03/05 11:53:40;;;;;;;8.00;4.80;;;;;;;13.18;69.50;97256.47;1222407;75;2951804;-64
2024/03/05 11:56:13;;;;;;;8.00;4.00;;;;;;;13.38;67.85;97258.22;1224640;75;2924891;-65
2024/03/05 11:58:46;;;;;;;6.05;3.80;;;;;;;13.43;67.29;97251.97;1224401;75;2930943;-66